sensor_id;sensor_type;location;lat;lon;timestamp;P1;durP1;ratioP1;P2;durP2;ratioP2
6259;SDS011;3163;51.516;4.000;2023-05-10T00:01:43;2.63;;;1.83;;
6259;SDS011;3163;51.516;4.000;2023-05-10T00:04:08;2.33;;;1.87;;
6259;SDS011;3163;51.516;4.000;2023-05-10T00:06:34;1.67;;;1.30;;
6259;SDS011;3163;51.516;4.000;2023-05-10T00:08:59;2.37;;;1.83;;
6259;SDS011;3163;51.516;4.000;2023-05-10T00:11:25;2.30;;;1.60;;
6259;SDS011;3163;51.516;4.000;2023-05-10T00:13:51;2.10;;;1.63;;
6259;SDS011;3163;51.516;4.000;2023-05-10T00:16:16;1.40;;;1.30;;
6259;SDS011;3163;51.516;4.000;2023-05-10T00:18:42;1.83;;;1.40;;
6259;SDS011;3163;51.516;4.000;2023-05-10T00:21:07;3.93;;;1.63;;
6259;SDS011;3163;51.516;4.000;2023-05-10T00:23:33;2.77;;;1.53;;
6259;SDS011;3163;51.516;4.000;2023-05-10T00:25:59;3.10;;;1.70;;
6259;SDS011;3163;51.516;4.000;2023-05-10T00:28:24;2.50;;;1.67;;
6259;SDS011;3163;51.516;4.000;2023-05-10T00:30:52;1.80;;;1.53;;
6259;SDS011;3163;51.516;4.000;2023-05-10T00:33:17;2.73;;;1.80;;
6259;SDS011;3163;51.516;4.000;2023-05-10T00:35:43;2.53;;;1.70;;
6259;SDS011;3163;51.516;4.000;2023-05-10T00:38:08;3.67;;;1.73;;
6259;SDS011;3163;51.516;4.000;2023-05-10T00:40:35;1.97;;;1.27;;
6259;SDS011;3163;51.516;4.000;2023-05-10T00:43:02;2.30;;;1.70;;
6259;SDS011;3163;51.516;4.000;2023-05-10T00:45:28;1.30;;;1.20;;
6259;SDS011;3163;51.516;4.000;2023-05-10T00:47:55;1.97;;;1.30;;
6259;SDS011;3163;51.516;4.000;2023-05-10T00:50:24;2.43;;;1.83;;
6259;SDS011;3163;51.516;4.000;2023-05-10T00:52:50;4.37;;;1.60;;
6259;SDS011;3163;51.516;4.000;2023-05-10T00:55:15;2.20;;;1.90;;
6259;SDS011;3163;51.516;4.000;2023-05-10T00:57:41;1.80;;;1.63;;
6259;SDS011;3163;51.516;4.000;2023-05-10T01:00:07;3.33;;;1.60;;
6259;SDS011;3163;51.516;4.000;2023-05-10T01:02:34;1.80;;;1.60;;
6259;SDS011;3163;51.516;4.000;2023-05-10T01:05:01;2.00;;;1.57;;
6259;SDS011;3163;51.516;4.000;2023-05-10T01:07:28;1.83;;;1.50;;
6259;SDS011;3163;51.516;4.000;2023-05-10T01:09:54;3.40;;;2.45;;
6259;SDS011;3163;51.516;4.000;2023-05-10T01:12:20;2.83;;;1.80;;
6259;SDS011;3163;51.516;4.000;2023-05-10T01:14:46;2.30;;;1.50;;
6259;SDS011;3163;51.516;4.000;2023-05-10T01:17:13;2.27;;;1.60;;
6259;SDS011;3163;51.516;4.000;2023-05-10T01:19:39;2.37;;;1.50;;
6259;SDS011;3163;51.516;4.000;2023-05-10T01:22:13;2.37;;;2.00;;
6259;SDS011;3163;51.516;4.000;2023-05-10T01:30:33;3.07;;;1.73;;
6259;SDS011;3163;51.516;4.000;2023-05-10T01:33:20;2.70;;;1.53;;
6259;SDS011;3163;51.516;4.000;2023-05-10T01:47:45;2.80;;;1.77;;
6259;SDS011;3163;51.516;4.000;2023-05-10T01:50:16;1.73;;;1.40;;
6259;SDS011;3163;51.516;4.000;2023-05-10T01:52:47;2.65;;;2.15;;
6259;SDS011;3163;51.516;4.000;2023-05-10T01:55:20;2.50;;;1.97;;
6259;SDS011;3163;51.516;4.000;2023-05-10T01:57:49;4.10;;;1.90;;
6259;SDS011;3163;51.516;4.000;2023-05-10T02:00:21;2.57;;;1.87;;
6259;SDS011;3163;51.516;4.000;2023-05-10T02:02:48;2.50;;;1.57;;
6259;SDS011;3163;51.516;4.000;2023-05-10T02:05:16;3.47;;;1.80;;
6259;SDS011;3163;51.516;4.000;2023-05-10T02:07:43;3.93;;;2.03;;
6259;SDS011;3163;51.516;4.000;2023-05-10T02:10:10;3.47;;;1.80;;
6259;SDS011;3163;51.516;4.000;2023-05-10T02:12:36;2.35;;;1.85;;
6259;SDS011;3163;51.516;4.000;2023-05-10T02:15:06;3.47;;;1.77;;
6259;SDS011;3163;51.516;4.000;2023-05-10T02:17:33;4.27;;;2.10;;
6259;SDS011;3163;51.516;4.000;2023-05-10T02:20:02;5.70;;;2.27;;
6259;SDS011;3163;51.516;4.000;2023-05-10T02:22:29;2.20;;;1.60;;
6259;SDS011;3163;51.516;4.000;2023-05-10T02:24:57;2.80;;;1.70;;
6259;SDS011;3163;51.516;4.000;2023-05-10T02:27:24;4.07;;;1.43;;
6259;SDS011;3163;51.516;4.000;2023-05-10T02:29:52;1.40;;;1.30;;
6259;SDS011;3163;51.516;4.000;2023-05-10T02:32:19;1.40;;;1.30;;
6259;SDS011;3163;51.516;4.000;2023-05-10T02:34:47;2.77;;;1.70;;
6259;SDS011;3163;51.516;4.000;2023-05-10T02:37:16;4.33;;;1.40;;
6259;SDS011;3163;51.516;4.000;2023-05-10T02:39:54;1.27;;;1.20;;
6259;SDS011;3163;51.516;4.000;2023-05-10T02:42:27;2.27;;;1.30;;
6259;SDS011;3163;51.516;4.000;2023-05-10T02:44:59;4.27;;;1.80;;
6259;SDS011;3163;51.516;4.000;2023-05-10T02:47:27;2.20;;;1.97;;
6259;SDS011;3163;51.516;4.000;2023-05-10T02:49:53;4.77;;;1.70;;
6259;SDS011;3163;51.516;4.000;2023-05-10T02:52:21;2.67;;;1.67;;
6259;SDS011;3163;51.516;4.000;2023-05-10T02:54:54;3.95;;;1.77;;
6259;SDS011;3163;51.516;4.000;2023-05-10T02:57:25;1.57;;;1.47;;
6259;SDS011;3163;51.516;4.000;2023-05-10T02:59:56;1.87;;;1.60;;
6259;SDS011;3163;51.516;4.000;2023-05-10T03:02:22;1.57;;;1.47;;
6259;SDS011;3163;51.516;4.000;2023-05-10T03:04:48;1.83;;;1.73;;
6259;SDS011;3163;51.516;4.000;2023-05-10T03:07:13;2.37;;;1.77;;
6259;SDS011;3163;51.516;4.000;2023-05-10T03:09:39;3.40;;;1.93;;
6259;SDS011;3163;51.516;4.000;2023-05-10T03:12:13;2.03;;;1.67;;
6259;SDS011;3163;51.516;4.000;2023-05-10T03:15:47;1.83;;;1.60;;
6259;SDS011;3163;51.516;4.000;2023-05-10T03:17:52;5.13;;;3.20;;
6259;SDS011;3163;51.516;4.000;2023-05-10T03:20:24;3.67;;;2.00;;
6259;SDS011;3163;51.516;4.000;2023-05-10T03:23:01;2.10;;;1.60;;
6259;SDS011;3163;51.516;4.000;2023-05-10T03:25:42;3.63;;;1.80;;
6259;SDS011;3163;51.516;4.000;2023-05-10T03:28:10;1.60;;;1.50;;
6259;SDS011;3163;51.516;4.000;2023-05-10T03:30:37;3.37;;;1.70;;
6259;SDS011;3163;51.516;4.000;2023-05-10T03:33:06;2.20;;;1.87;;
6259;SDS011;3163;51.516;4.000;2023-05-10T03:35:32;2.93;;;1.60;;
6259;SDS011;3163;51.516;4.000;2023-05-10T03:37:57;1.50;;;1.37;;
6259;SDS011;3163;51.516;4.000;2023-05-10T03:40:23;3.90;;;1.50;;
6259;SDS011;3163;51.516;4.000;2023-05-10T03:42:49;2.77;;;1.60;;
6259;SDS011;3163;51.516;4.000;2023-05-10T03:45:15;1.20;;;1.20;;
6259;SDS011;3163;51.516;4.000;2023-05-10T03:47:41;1.83;;;1.30;;
6259;SDS011;3163;51.516;4.000;2023-05-10T03:50:06;1.90;;;1.20;;
6259;SDS011;3163;51.516;4.000;2023-05-10T03:52:32;1.47;;;1.37;;
6259;SDS011;3163;51.516;4.000;2023-05-10T03:54:58;2.10;;;1.60;;
6259;SDS011;3163;51.516;4.000;2023-05-10T03:57:23;2.13;;;1.20;;
6259;SDS011;3163;51.516;4.000;2023-05-10T03:59:49;2.80;;;1.27;;
6259;SDS011;3163;51.516;4.000;2023-05-10T04:02:15;3.43;;;1.23;;
6259;SDS011;3163;51.516;4.000;2023-05-10T04:04:41;1.83;;;1.40;;
6259;SDS011;3163;51.516;4.000;2023-05-10T04:07:06;2.50;;;1.10;;
6259;SDS011;3163;51.516;4.000;2023-05-10T04:09:32;1.17;;;1.10;;
6259;SDS011;3163;51.516;4.000;2023-05-10T04:11:58;2.13;;;1.30;;
6259;SDS011;3163;51.516;4.000;2023-05-10T04:14:24;1.10;;;1.00;;
6259;SDS011;3163;51.516;4.000;2023-05-10T04:16:50;1.40;;;0.80;;
6259;SDS011;3163;51.516;4.000;2023-05-10T04:19:15;0.90;;;0.90;;
6259;SDS011;3163;51.516;4.000;2023-05-10T04:21:41;2.27;;;1.23;;
6259;SDS011;3163;51.516;4.000;2023-05-10T04:24:06;4.33;;;1.83;;
6259;SDS011;3163;51.516;4.000;2023-05-10T04:26:32;2.57;;;1.40;;
6259;SDS011;3163;51.516;4.000;2023-05-10T04:28:57;4.00;;;1.30;;
6259;SDS011;3163;51.516;4.000;2023-05-10T04:31:23;3.73;;;1.20;;
6259;SDS011;3163;51.516;4.000;2023-05-10T04:33:48;2.13;;;1.43;;
6259;SDS011;3163;51.516;4.000;2023-05-10T04:36:15;1.00;;;1.00;;
6259;SDS011;3163;51.516;4.000;2023-05-10T04:38:40;1.60;;;1.37;;
6259;SDS011;3163;51.516;4.000;2023-05-10T04:41:09;2.00;;;1.20;;
6259;SDS011;3163;51.516;4.000;2023-05-10T04:43:36;1.87;;;1.27;;
6259;SDS011;3163;51.516;4.000;2023-05-10T04:46:03;1.70;;;1.60;;
6259;SDS011;3163;51.516;4.000;2023-05-10T04:48:29;2.63;;;1.20;;
6259;SDS011;3163;51.516;4.000;2023-05-10T04:50:55;1.90;;;1.20;;
6259;SDS011;3163;51.516;4.000;2023-05-10T04:53:21;2.30;;;2.10;;
6259;SDS011;3163;51.516;4.000;2023-05-10T04:55:47;2.33;;;1.17;;
6259;SDS011;3163;51.516;4.000;2023-05-10T04:58:13;2.03;;;1.43;;
6259;SDS011;3163;51.516;4.000;2023-05-10T05:00:38;1.13;;;1.13;;
6259;SDS011;3163;51.516;4.000;2023-05-10T05:03:04;2.37;;;1.50;;
6259;SDS011;3163;51.516;4.000;2023-05-10T05:05:30;2.13;;;1.43;;
6259;SDS011;3163;51.516;4.000;2023-05-10T05:07:55;1.70;;;1.47;;
6259;SDS011;3163;51.516;4.000;2023-05-10T05:10:21;3.90;;;2.43;;
6259;SDS011;3163;51.516;4.000;2023-05-10T05:12:47;2.20;;;1.70;;
6259;SDS011;3163;51.516;4.000;2023-05-10T05:15:12;2.20;;;2.00;;
6259;SDS011;3163;51.516;4.000;2023-05-10T05:17:38;1.33;;;1.07;;
6259;SDS011;3163;51.516;4.000;2023-05-10T05:20:04;2.30;;;1.40;;
6259;SDS011;3163;51.516;4.000;2023-05-10T05:22:30;2.03;;;1.90;;
6259;SDS011;3163;51.516;4.000;2023-05-10T05:24:56;1.60;;;1.50;;
6259;SDS011;3163;51.516;4.000;2023-05-10T05:27:23;1.70;;;1.60;;
6259;SDS011;3163;51.516;4.000;2023-05-10T05:29:52;1.20;;;1.20;;
6259;SDS011;3163;51.516;4.000;2023-05-10T05:32:21;1.53;;;1.43;;
6259;SDS011;3163;51.516;4.000;2023-05-10T05:34:47;1.60;;;1.50;;
6259;SDS011;3163;51.516;4.000;2023-05-10T05:37:17;1.97;;;1.40;;
6259;SDS011;3163;51.516;4.000;2023-05-10T05:39:44;3.20;;;1.60;;
6259;SDS011;3163;51.516;4.000;2023-05-10T05:42:10;1.20;;;1.17;;
6259;SDS011;3163;51.516;4.000;2023-05-10T05:44:36;4.13;;;1.70;;
6259;SDS011;3163;51.516;4.000;2023-05-10T05:47:02;1.60;;;1.50;;
6259;SDS011;3163;51.516;4.000;2023-05-10T05:49:28;1.77;;;1.60;;
6259;SDS011;3163;51.516;4.000;2023-05-10T05:51:53;1.30;;;1.20;;
6259;SDS011;3163;51.516;4.000;2023-05-10T05:54:19;1.33;;;1.23;;
6259;SDS011;3163;51.516;4.000;2023-05-10T05:56:45;1.60;;;1.50;;
6259;SDS011;3163;51.516;4.000;2023-05-10T05:59:11;1.67;;;1.50;;
6259;SDS011;3163;51.516;4.000;2023-05-10T06:01:36;2.63;;;1.40;;
6259;SDS011;3163;51.516;4.000;2023-05-10T06:04:02;3.07;;;1.47;;
6259;SDS011;3163;51.516;4.000;2023-05-10T06:06:28;2.03;;;1.77;;
6259;SDS011;3163;51.516;4.000;2023-05-10T06:08:53;1.70;;;1.40;;
6259;SDS011;3163;51.516;4.000;2023-05-10T06:11:19;1.50;;;1.27;;
6259;SDS011;3163;51.516;4.000;2023-05-10T06:13:46;0.90;;;0.90;;
6259;SDS011;3163;51.516;4.000;2023-05-10T06:16:12;1.30;;;1.20;;
6259;SDS011;3163;51.516;4.000;2023-05-10T06:18:38;1.47;;;1.20;;
6259;SDS011;3163;51.516;4.000;2023-05-10T06:21:03;1.33;;;1.20;;
6259;SDS011;3163;51.516;4.000;2023-05-10T06:23:29;1.53;;;1.00;;
6259;SDS011;3163;51.516;4.000;2023-05-10T06:25:55;1.00;;;1.00;;
6259;SDS011;3163;51.516;4.000;2023-05-10T06:28:20;1.67;;;1.50;;
6259;SDS011;3163;51.516;4.000;2023-05-10T06:30:46;1.87;;;1.23;;
6259;SDS011;3163;51.516;4.000;2023-05-10T06:33:11;1.20;;;1.10;;
6259;SDS011;3163;51.516;4.000;2023-05-10T06:35:37;2.80;;;1.30;;
6259;SDS011;3163;51.516;4.000;2023-05-10T06:38:03;0.87;;;0.80;;
6259;SDS011;3163;51.516;4.000;2023-05-10T06:40:29;1.20;;;1.10;;
6259;SDS011;3163;51.516;4.000;2023-05-10T06:42:55;2.43;;;1.07;;
6259;SDS011;3163;51.516;4.000;2023-05-10T06:45:20;1.93;;;1.13;;
6259;SDS011;3163;51.516;4.000;2023-05-10T06:47:46;1.57;;;1.10;;
6259;SDS011;3163;51.516;4.000;2023-05-10T06:50:12;1.23;;;1.13;;
6259;SDS011;3163;51.516;4.000;2023-05-10T06:52:38;1.13;;;1.07;;
6259;SDS011;3163;51.516;4.000;2023-05-10T06:55:03;1.45;;;1.10;;
6259;SDS011;3163;51.516;4.000;2023-05-10T06:57:30;1.67;;;1.20;;
6259;SDS011;3163;51.516;4.000;2023-05-10T06:59:55;2.63;;;1.10;;
6259;SDS011;3163;51.516;4.000;2023-05-10T07:02:21;2.37;;;1.20;;
6259;SDS011;3163;51.516;4.000;2023-05-10T07:04:48;2.83;;;1.20;;
6259;SDS011;3163;51.516;4.000;2023-05-10T07:07:14;3.33;;;1.13;;
6259;SDS011;3163;51.516;4.000;2023-05-10T07:09:39;1.60;;;1.50;;
6259;SDS011;3163;51.516;4.000;2023-05-10T07:12:05;0.97;;;0.80;;
6259;SDS011;3163;51.516;4.000;2023-05-10T07:14:31;1.07;;;1.00;;
6259;SDS011;3163;51.516;4.000;2023-05-10T07:16:56;0.93;;;0.93;;
6259;SDS011;3163;51.516;4.000;2023-05-10T07:19:22;2.00;;;0.90;;
6259;SDS011;3163;51.516;4.000;2023-05-10T07:21:48;1.50;;;1.40;;
6259;SDS011;3163;51.516;4.000;2023-05-10T07:24:13;1.23;;;0.80;;
6259;SDS011;3163;51.516;4.000;2023-05-10T07:26:39;1.20;;;1.10;;
6259;SDS011;3163;51.516;4.000;2023-05-10T07:29:05;1.03;;;0.90;;
6259;SDS011;3163;51.516;4.000;2023-05-10T07:31:30;1.10;;;0.97;;
6259;SDS011;3163;51.516;4.000;2023-05-10T07:33:56;1.00;;;0.93;;
6259;SDS011;3163;51.516;4.000;2023-05-10T07:36:21;0.70;;;0.70;;
6259;SDS011;3163;51.516;4.000;2023-05-10T07:38:47;0.70;;;0.70;;
6259;SDS011;3163;51.516;4.000;2023-05-10T07:41:14;0.80;;;0.80;;
6259;SDS011;3163;51.516;4.000;2023-05-10T07:43:39;0.90;;;0.90;;
6259;SDS011;3163;51.516;4.000;2023-05-10T07:46:05;0.80;;;0.80;;
6259;SDS011;3163;51.516;4.000;2023-05-10T07:48:31;0.60;;;0.60;;
6259;SDS011;3163;51.516;4.000;2023-05-10T07:50:56;1.97;;;0.77;;
6259;SDS011;3163;51.516;4.000;2023-05-10T07:53:22;1.03;;;0.93;;
6259;SDS011;3163;51.516;4.000;2023-05-10T07:55:51;1.03;;;0.80;;
6259;SDS011;3163;51.516;4.000;2023-05-10T07:58:19;0.60;;;0.60;;
6259;SDS011;3163;51.516;4.000;2023-05-10T08:00:45;0.70;;;0.70;;
6259;SDS011;3163;51.516;4.000;2023-05-10T08:03:10;1.10;;;0.80;;
6259;SDS011;3163;51.516;4.000;2023-05-10T08:05:36;0.80;;;0.80;;
6259;SDS011;3163;51.516;4.000;2023-05-10T08:08:02;0.83;;;0.70;;
6259;SDS011;3163;51.516;4.000;2023-05-10T08:10:27;0.93;;;0.90;;
6259;SDS011;3163;51.516;4.000;2023-05-10T08:12:53;0.50;;;0.50;;
6259;SDS011;3163;51.516;4.000;2023-05-10T08:15:19;1.10;;;1.00;;
6259;SDS011;3163;51.516;4.000;2023-05-10T08:17:44;0.97;;;0.60;;
6259;SDS011;3163;51.516;4.000;2023-05-10T08:20:10;0.57;;;0.57;;
6259;SDS011;3163;51.516;4.000;2023-05-10T08:22:37;0.70;;;0.70;;
6259;SDS011;3163;51.516;4.000;2023-05-10T08:25:03;0.60;;;0.50;;
6259;SDS011;3163;51.516;4.000;2023-05-10T08:27:29;0.83;;;0.80;;
6259;SDS011;3163;51.516;4.000;2023-05-10T08:29:54;0.70;;;0.70;;
6259;SDS011;3163;51.516;4.000;2023-05-10T08:32:20;0.93;;;0.70;;
6259;SDS011;3163;51.516;4.000;2023-05-10T08:34:46;0.80;;;0.70;;
6259;SDS011;3163;51.516;4.000;2023-05-10T08:37:11;0.70;;;0.70;;
6259;SDS011;3163;51.516;4.000;2023-05-10T08:39:38;0.83;;;0.83;;
6259;SDS011;3163;51.516;4.000;2023-05-10T08:42:04;0.70;;;0.70;;
6259;SDS011;3163;51.516;4.000;2023-05-10T08:44:34;0.80;;;0.80;;
6259;SDS011;3163;51.516;4.000;2023-05-10T08:47:05;0.70;;;0.70;;
6259;SDS011;3163;51.516;4.000;2023-05-10T08:49:32;0.90;;;0.90;;
6259;SDS011;3163;51.516;4.000;2023-05-10T08:51:59;0.70;;;0.70;;
6259;SDS011;3163;51.516;4.000;2023-05-10T08:54:28;0.50;;;0.50;;
6259;SDS011;3163;51.516;4.000;2023-05-10T08:56:54;0.63;;;0.60;;
6259;SDS011;3163;51.516;4.000;2023-05-10T08:59:21;0.60;;;0.60;;
6259;SDS011;3163;51.516;4.000;2023-05-10T09:01:47;0.80;;;0.80;;
6259;SDS011;3163;51.516;4.000;2023-05-10T09:04:14;0.70;;;0.70;;
6259;SDS011;3163;51.516;4.000;2023-05-10T09:06:39;0.60;;;0.60;;
6259;SDS011;3163;51.516;4.000;2023-05-10T09:09:06;0.70;;;0.70;;
6259;SDS011;3163;51.516;4.000;2023-05-10T09:11:32;0.57;;;0.50;;
6259;SDS011;3163;51.516;4.000;2023-05-10T09:13:57;0.63;;;0.63;;
6259;SDS011;3163;51.516;4.000;2023-05-10T09:16:23;0.80;;;0.80;;
6259;SDS011;3163;51.516;4.000;2023-05-10T09:18:49;0.80;;;0.80;;
6259;SDS011;3163;51.516;4.000;2023-05-10T09:21:14;0.70;;;0.70;;
6259;SDS011;3163;51.516;4.000;2023-05-10T09:23:43;0.70;;;0.70;;
6259;SDS011;3163;51.516;4.000;2023-05-10T09:26:12;2.30;;;0.60;;
6259;SDS011;3163;51.516;4.000;2023-05-10T09:28:51;0.73;;;0.63;;
6259;SDS011;3163;51.516;4.000;2023-05-10T09:31:17;0.70;;;0.60;;
6259;SDS011;3163;51.516;4.000;2023-05-10T09:33:46;0.53;;;0.53;;
6259;SDS011;3163;51.516;4.000;2023-05-10T09:36:12;1.00;;;1.00;;
6259;SDS011;3163;51.516;4.000;2023-05-10T09:38:45;0.60;;;0.60;;
6259;SDS011;3163;51.516;4.000;2023-05-10T09:41:16;0.67;;;0.67;;
6259;SDS011;3163;51.516;4.000;2023-05-10T09:43:45;0.70;;;0.70;;
6259;SDS011;3163;51.516;4.000;2023-05-10T09:46:11;0.63;;;0.60;;
6259;SDS011;3163;51.516;4.000;2023-05-10T09:48:46;0.70;;;0.70;;
6259;SDS011;3163;51.516;4.000;2023-05-10T09:51:22;0.77;;;0.73;;
6259;SDS011;3163;51.516;4.000;2023-05-10T09:53:50;0.60;;;0.60;;
6259;SDS011;3163;51.516;4.000;2023-05-10T09:56:37;0.47;;;0.47;;
6259;SDS011;3163;51.516;4.000;2023-05-10T09:59:04;0.60;;;0.60;;
6259;SDS011;3163;51.516;4.000;2023-05-10T10:01:31;0.47;;;0.47;;
6259;SDS011;3163;51.516;4.000;2023-05-10T10:03:56;0.50;;;0.50;;
6259;SDS011;3163;51.516;4.000;2023-05-10T10:06:23;1.87;;;1.00;;
6259;SDS011;3163;51.516;4.000;2023-05-10T10:08:49;0.70;;;0.70;;
6259;SDS011;3163;51.516;4.000;2023-05-10T10:11:16;1.77;;;0.80;;
6259;SDS011;3163;51.516;4.000;2023-05-10T10:13:42;0.70;;;0.70;;
6259;SDS011;3163;51.516;4.000;2023-05-10T10:16:08;0.87;;;0.87;;
6259;SDS011;3163;51.516;4.000;2023-05-10T10:18:34;1.10;;;0.67;;
6259;SDS011;3163;51.516;4.000;2023-05-10T10:21:04;1.80;;;0.90;;
6259;SDS011;3163;51.516;4.000;2023-05-10T10:23:33;0.50;;;0.50;;
6259;SDS011;3163;51.516;4.000;2023-05-10T10:25:59;0.70;;;0.70;;
6259;SDS011;3163;51.516;4.000;2023-05-10T10:28:29;1.70;;;0.77;;
6259;SDS011;3163;51.516;4.000;2023-05-10T10:30:58;0.60;;;0.60;;
6259;SDS011;3163;51.516;4.000;2023-05-10T10:33:40;0.70;;;0.67;;
6259;SDS011;3163;51.516;4.000;2023-05-10T10:36:13;1.17;;;1.00;;
6259;SDS011;3163;51.516;4.000;2023-05-10T10:44:25;1.50;;;1.07;;
6259;SDS011;3163;51.516;4.000;2023-05-10T10:54:58;1.20;;;0.90;;
6259;SDS011;3163;51.516;4.000;2023-05-10T10:57:26;1.13;;;0.80;;
6259;SDS011;3163;51.516;4.000;2023-05-10T11:08:09;0.60;;;0.60;;
6259;SDS011;3163;51.516;4.000;2023-05-10T11:10:39;1.07;;;0.80;;
6259;SDS011;3163;51.516;4.000;2023-05-10T11:13:14;0.60;;;0.60;;
6259;SDS011;3163;51.516;4.000;2023-05-10T11:15:40;2.50;;;0.83;;
6259;SDS011;3163;51.516;4.000;2023-05-10T11:20:58;0.70;;;0.70;;
6259;SDS011;3163;51.516;4.000;2023-05-10T11:23:31;0.60;;;0.60;;
6259;SDS011;3163;51.516;4.000;2023-05-10T11:25:58;1.83;;;0.90;;
6259;SDS011;3163;51.516;4.000;2023-05-10T11:28:26;0.93;;;0.70;;
6259;SDS011;3163;51.516;4.000;2023-05-10T11:30:52;0.70;;;0.70;;
6259;SDS011;3163;51.516;4.000;2023-05-10T11:33:18;0.83;;;0.67;;
6259;SDS011;3163;51.516;4.000;2023-05-10T11:35:44;0.80;;;0.70;;
6259;SDS011;3163;51.516;4.000;2023-05-10T11:38:11;1.17;;;0.70;;
6259;SDS011;3163;51.516;4.000;2023-05-10T11:40:37;0.67;;;0.67;;
6259;SDS011;3163;51.516;4.000;2023-05-10T11:43:04;2.30;;;0.60;;
6259;SDS011;3163;51.516;4.000;2023-05-10T11:45:33;1.40;;;0.70;;
6259;SDS011;3163;51.516;4.000;2023-05-10T11:47:59;0.90;;;0.80;;
6259;SDS011;3163;51.516;4.000;2023-05-10T11:50:26;1.10;;;1.00;;
6259;SDS011;3163;51.516;4.000;2023-05-10T11:52:55;2.37;;;1.30;;
6259;SDS011;3163;51.516;4.000;2023-05-10T11:55:21;3.47;;;1.33;;
6259;SDS011;3163;51.516;4.000;2023-05-10T11:57:51;2.43;;;1.20;;
6259;SDS011;3163;51.516;4.000;2023-05-10T12:00:17;3.33;;;1.40;;
6259;SDS011;3163;51.516;4.000;2023-05-10T12:02:43;1.43;;;1.00;;
6259;SDS011;3163;51.516;4.000;2023-05-10T12:05:09;1.03;;;0.93;;
6259;SDS011;3163;51.516;4.000;2023-05-10T12:07:35;1.30;;;1.23;;
6259;SDS011;3163;51.516;4.000;2023-05-10T12:12:35;1.73;;;1.30;;
6259;SDS011;3163;51.516;4.000;2023-05-10T12:15:25;1.73;;;0.90;;
6259;SDS011;3163;51.516;4.000;2023-05-10T12:17:52;1.30;;;1.20;;
6259;SDS011;3163;51.516;4.000;2023-05-10T12:22:45;2.23;;;1.37;;
6259;SDS011;3163;51.516;4.000;2023-05-10T12:25:22;1.50;;;1.00;;
6259;SDS011;3163;51.516;4.000;2023-05-10T12:30:19;0.87;;;0.83;;
6259;SDS011;3163;51.516;4.000;2023-05-10T12:32:48;1.33;;;0.97;;
6259;SDS011;3163;51.516;4.000;2023-05-10T12:35:14;1.07;;;0.93;;
6259;SDS011;3163;51.516;4.000;2023-05-10T12:37:42;1.53;;;1.13;;
6259;SDS011;3163;51.516;4.000;2023-05-10T12:40:08;1.37;;;1.00;;
6259;SDS011;3163;51.516;4.000;2023-05-10T12:42:36;1.00;;;1.00;;
6259;SDS011;3163;51.516;4.000;2023-05-10T12:45:02;1.30;;;1.20;;
6259;SDS011;3163;51.516;4.000;2023-05-10T12:47:29;1.40;;;0.97;;
6259;SDS011;3163;51.516;4.000;2023-05-10T12:49:55;1.43;;;1.00;;
6259;SDS011;3163;51.516;4.000;2023-05-10T12:52:20;2.00;;;1.00;;
6259;SDS011;3163;51.516;4.000;2023-05-10T12:54:46;2.00;;;1.30;;
6259;SDS011;3163;51.516;4.000;2023-05-10T12:57:12;1.30;;;1.00;;
6259;SDS011;3163;51.516;4.000;2023-05-10T12:59:38;2.20;;;1.10;;
6259;SDS011;3163;51.516;4.000;2023-05-10T13:02:04;3.37;;;1.07;;
6259;SDS011;3163;51.516;4.000;2023-05-10T13:04:30;3.27;;;1.30;;
6259;SDS011;3163;51.516;4.000;2023-05-10T13:06:56;0.80;;;0.80;;
6259;SDS011;3163;51.516;4.000;2023-05-10T13:09:23;1.23;;;0.90;;
6259;SDS011;3163;51.516;4.000;2023-05-10T13:11:50;1.33;;;1.03;;
6259;SDS011;3163;51.516;4.000;2023-05-10T13:14:16;0.63;;;0.63;;
6259;SDS011;3163;51.516;4.000;2023-05-10T13:16:41;0.70;;;0.70;;
6259;SDS011;3163;51.516;4.000;2023-05-10T13:19:07;0.80;;;0.73;;
6259;SDS011;3163;51.516;4.000;2023-05-10T13:21:33;1.00;;;0.90;;
6259;SDS011;3163;51.516;4.000;2023-05-10T13:23:58;1.03;;;0.83;;
6259;SDS011;3163;51.516;4.000;2023-05-10T13:26:25;2.20;;;0.70;;
6259;SDS011;3163;51.516;4.000;2023-05-10T13:28:51;1.80;;;1.33;;
6259;SDS011;3163;51.516;4.000;2023-05-10T13:31:16;2.43;;;0.90;;
6259;SDS011;3163;51.516;4.000;2023-05-10T13:33:42;1.00;;;0.77;;
6259;SDS011;3163;51.516;4.000;2023-05-10T13:36:07;2.83;;;0.90;;
6259;SDS011;3163;51.516;4.000;2023-05-10T13:38:33;0.93;;;0.93;;
6259;SDS011;3163;51.516;4.000;2023-05-10T13:40:59;1.63;;;0.87;;
6259;SDS011;3163;51.516;4.000;2023-05-10T13:43:24;2.70;;;0.70;;
6259;SDS011;3163;51.516;4.000;2023-05-10T13:45:50;1.43;;;1.33;;
6259;SDS011;3163;51.516;4.000;2023-05-10T13:48:16;2.13;;;0.87;;
6259;SDS011;3163;51.516;4.000;2023-05-10T13:50:41;1.23;;;1.13;;
6259;SDS011;3163;51.516;4.000;2023-05-10T13:53:07;1.40;;;1.00;;
6259;SDS011;3163;51.516;4.000;2023-05-10T13:55:33;1.13;;;0.80;;
6259;SDS011;3163;51.516;4.000;2023-05-10T13:57:59;0.97;;;0.77;;
6259;SDS011;3163;51.516;4.000;2023-05-10T14:00:25;1.13;;;0.83;;
6259;SDS011;3163;51.516;4.000;2023-05-10T14:02:50;0.97;;;0.93;;
6259;SDS011;3163;51.516;4.000;2023-05-10T14:05:16;1.80;;;1.27;;
6259;SDS011;3163;51.516;4.000;2023-05-10T14:07:41;1.13;;;0.80;;
6259;SDS011;3163;51.516;4.000;2023-05-10T14:10:07;1.40;;;1.10;;
6259;SDS011;3163;51.516;4.000;2023-05-10T14:12:33;1.10;;;1.10;;
6259;SDS011;3163;51.516;4.000;2023-05-10T14:14:58;0.77;;;0.77;;
6259;SDS011;3163;51.516;4.000;2023-05-10T14:17:24;1.10;;;1.00;;
6259;SDS011;3163;51.516;4.000;2023-05-10T14:19:49;2.40;;;1.10;;
6259;SDS011;3163;51.516;4.000;2023-05-10T14:22:15;2.23;;;1.60;;
6259;SDS011;3163;51.516;4.000;2023-05-10T14:24:41;1.43;;;1.20;;
6259;SDS011;3163;51.516;4.000;2023-05-10T14:27:06;1.53;;;1.23;;
6259;SDS011;3163;51.516;4.000;2023-05-10T14:29:32;2.80;;;2.10;;
6259;SDS011;3163;51.516;4.000;2023-05-10T14:31:57;1.73;;;1.40;;
6259;SDS011;3163;51.516;4.000;2023-05-10T14:34:23;3.80;;;1.57;;
6259;SDS011;3163;51.516;4.000;2023-05-10T14:36:49;2.43;;;1.23;;
6259;SDS011;3163;51.516;4.000;2023-05-10T14:39:14;1.60;;;1.50;;
6259;SDS011;3163;51.516;4.000;2023-05-10T14:41:40;2.27;;;1.37;;
6259;SDS011;3163;51.516;4.000;2023-05-10T14:44:07;1.63;;;1.20;;
6259;SDS011;3163;51.516;4.000;2023-05-10T14:46:33;1.27;;;1.17;;
6259;SDS011;3163;51.516;4.000;2023-05-10T14:48:59;1.37;;;1.27;;
6259;SDS011;3163;51.516;4.000;2023-05-10T14:51:25;1.57;;;1.40;;
6259;SDS011;3163;51.516;4.000;2023-05-10T14:53:50;1.50;;;1.40;;
6259;SDS011;3163;51.516;4.000;2023-05-10T14:56:16;2.47;;;1.40;;
6259;SDS011;3163;51.516;4.000;2023-05-10T14:58:41;1.40;;;1.30;;
6259;SDS011;3163;51.516;4.000;2023-05-10T15:01:07;4.73;;;3.17;;
6259;SDS011;3163;51.516;4.000;2023-05-10T15:03:33;4.90;;;3.10;;
6259;SDS011;3163;51.516;4.000;2023-05-10T15:05:58;5.03;;;3.33;;
6259;SDS011;3163;51.516;4.000;2023-05-10T15:08:24;3.90;;;3.23;;
6259;SDS011;3163;51.516;4.000;2023-05-10T15:10:50;5.20;;;3.27;;
6259;SDS011;3163;51.516;4.000;2023-05-10T15:13:16;4.67;;;2.70;;
6259;SDS011;3163;51.516;4.000;2023-05-10T15:15:42;4.80;;;3.07;;
6259;SDS011;3163;51.516;4.000;2023-05-10T15:18:08;4.03;;;2.60;;
6259;SDS011;3163;51.516;4.000;2023-05-10T15:20:34;3.57;;;2.70;;
6259;SDS011;3163;51.516;4.000;2023-05-10T15:23:00;4.43;;;2.33;;
6259;SDS011;3163;51.516;4.000;2023-05-10T15:25:26;3.97;;;2.57;;
6259;SDS011;3163;51.516;4.000;2023-05-10T15:27:52;3.10;;;2.70;;
6259;SDS011;3163;51.516;4.000;2023-05-10T15:30:18;3.60;;;2.53;;
6259;SDS011;3163;51.516;4.000;2023-05-10T15:32:43;2.93;;;2.27;;
6259;SDS011;3163;51.516;4.000;2023-05-10T15:35:09;3.10;;;2.47;;
6259;SDS011;3163;51.516;4.000;2023-05-10T15:37:36;3.03;;;2.20;;
6259;SDS011;3163;51.516;4.000;2023-05-10T15:40:02;2.37;;;2.10;;
6259;SDS011;3163;51.516;4.000;2023-05-10T15:42:31;4.80;;;2.20;;
6259;SDS011;3163;51.516;4.000;2023-05-10T15:44:57;4.47;;;2.77;;
6259;SDS011;3163;51.516;4.000;2023-05-10T15:47:26;4.87;;;2.43;;
6259;SDS011;3163;51.516;4.000;2023-05-10T15:49:52;3.93;;;2.67;;
6259;SDS011;3163;51.516;4.000;2023-05-10T15:52:18;5.17;;;3.60;;
6259;SDS011;3163;51.516;4.000;2023-05-10T15:54:45;3.13;;;2.07;;
6259;SDS011;3163;51.516;4.000;2023-05-10T15:57:11;4.97;;;2.27;;
6259;SDS011;3163;51.516;4.000;2023-05-10T15:59:36;4.20;;;2.33;;
6259;SDS011;3163;51.516;4.000;2023-05-10T16:02:02;5.10;;;3.00;;
6259;SDS011;3163;51.516;4.000;2023-05-10T16:04:28;4.90;;;2.53;;